Friday, October 19, 2018, 7:53 AM EDT
Back to Local

KNEL, Lakehurst Naval Air Station

Location: Lakehurst, NJ, United States Lat: 40.033
Local Time: 7:53 AM EDT (11:53 GMT) Lon: -74.317
Time Zone: US/Eastern Elev: 101 ft

Show me the last for .
Show Decoded

2018-10-19 07:00 METAR KNEL 191100Z AUTO 00000KT 9SM CLR 00/M01 A3033 RMK AO2 SLP269 T00001006 $
                 =
2018-10-19 06:00 METAR KNEL 191000Z AUTO 00000KT 10SM CLR 01/00 A3033 RMK AO2 SLP270 T00060000 $
                 =
2018-10-19 05:00 METAR KNEL 190900Z AUTO 00000KT 10SM CLR 00/00 A3033 RMK AO2 SLP268 T00000000
                 57004 $ =
2018-10-19 04:00 METAR KNEL 190800Z AUTO 31003KT 10SM CLR 01/00 A3033 RMK AO2 SLP271 T00060000 $
                 =
2018-10-19 03:00 METAR KNEL 190700Z AUTO 00000KT 10SM CLR 01/00 A3034 RMK AO2 SLP273 T00060000 $
                 =
2018-10-19 02:00 METAR KNEL 190600Z AUTO 00000KT 10SM CLR 01/00 A3034 RMK AO2 SLP272 T00060000
                 10050 20000 58006 $ =
2018-10-19 01:00 METAR KNEL 190500Z AUTO 00000KT 10SM CLR 02/01 A3034 RMK AO2 SLP274 T00170006
                 400170017 $ =
2018-10-19 00:00 METAR KNEL 190400Z AUTO 00000KT 10SM CLR 02/01 A3035 RMK AO2 SLP277 T00170011 $
                 =
2018-10-18 23:00 METAR KNEL 190300Z AUTO 00000KT 10SM CLR 02/01 A3036 RMK AO2 SLP279 T00170006
                 53003 $ =
2018-10-18 22:00 METAR KNEL 190200Z AUTO 00000KT 10SM CLR 03/01 A3036 RMK AO2 SLP281 T00330011 $
                 =
2018-10-18 21:00 METAR KNEL 190100Z 00000KT 10SM CLR 05/01 A3035 RMK AO2 SLP278 T00500011 $ =
2018-10-18 20:00 METAR KNEL 190000Z 00000KT 10SM CLR 04/01 A3036 RMK AO2 SLPNO T00440011 10122
                 20044 53010 $ =
2018-10-18 19:00 METAR KNEL 182300Z 25004KT 10SM CLR 07/00 A3035 RMK AO2 SLPNO T00720000 $ =
2018-10-18 18:00 METAR KNEL 182200Z 28008KT 10SM CLR 10/M01 A3033 RMK AO2 SLP270 T01001006 $ =
2018-10-18 17:00 METAR KNEL 182100Z 29012KT 10SM CLR 12/M02 A3032 RMK AO2 SLP267 T01171022 56012
                 $ =
2018-10-18 16:00 METAR KNEL 182000Z 29012G19KT 10SM CLR 12/M03 A3032 RMK AO2 SLP267 T01221028 $ =
2018-10-18 15:00 METAR KNEL 181900Z 30008G21KT 10SM CLR 12/M04 A3033 RMK AO2 SLP269 T01221039 $ =
2018-10-18 14:00 METAR KNEL 181800Z 28014G23KT 10SM CLR 12/M03 A3034 RMK AO2 SLP273 6////
                 T01171033 10117 20061 58002 $ =
2018-10-18 13:00 METAR KNEL 181700Z 30013KT 10SM CLR 11/M04 A3036 RMK AO2 SLP279 T01111044 $ =
2018-10-18 12:00 METAR KNEL 181600Z 32009G16KT 10SM CLR 11/M04 A3037 RMK AO2 SLP284 T01061044 $ =
2018-10-18 11:00 METAR KNEL 181500Z 32010G18KT 10SM SCT049 09/M03 A3037 RMK AO2 SLP282 6////
                 T00891033 $ =
2018-10-18 10:00 METAR KNEL 181400Z 32007KT 290V020 10SM SCT055 08/M02 A3036 RMK AO2 SLP281
                 T00831022 $ =
2018-10-18 09:00 METAR KNEL 181300Z 32005KT 10SM SCT070 07/01 A3034 RMK AO2 TSB1233E1237 SLP274
                 T00720011 $ =
2018-10-18 07:55 METAR KNEL 181155Z 00000KT 10SM SCT070 09/01 A3030 RMK AO2A SLPNO WND DATA ESTMD
                 ALSTG ETSMD T00900006 $ =

Support USWX by starting your Amazon purchase here.